createdAt,value
2023-03-06T00:01:25.735Z,2.83
2023-03-06T00:03:56.313Z,4.07
2023-03-06T00:06:26.013Z,8.63
2023-03-06T00:08:55.220Z,2.95
2023-03-06T00:11:24.870Z,7.03
2023-03-06T00:13:54.023Z,7.82
2023-03-06T00:16:23.524Z,5.03
2023-03-06T00:18:52.886Z,5.72
2023-03-06T00:21:23.745Z,9.30
2023-03-06T00:23:52.941Z,6.03
2023-03-06T00:26:22.362Z,3.90
2023-03-06T00:28:52.122Z,5.22
2023-03-06T00:31:21.520Z,7.73
2023-03-06T00:33:50.745Z,4.72
2023-03-06T00:36:22.136Z,5.88
2023-03-06T00:38:51.463Z,6.13
2023-03-06T00:41:21.072Z,10.05
2023-03-06T00:43:50.261Z,6.33
2023-03-06T00:46:19.654Z,5.55
2023-03-06T00:48:48.812Z,5.78
2023-03-06T00:51:19.906Z,4.70
2023-03-06T00:53:50.525Z,3.70
2023-03-06T00:56:20.932Z,4.43
2023-03-06T00:58:50.226Z,2.70
2023-03-06T01:01:19.702Z,6.33
2023-03-06T01:03:49.105Z,6.10
2023-03-06T01:06:18.659Z,5.97
2023-03-06T01:08:49.397Z,9.27
2023-03-06T01:11:20.186Z,4.57
2023-03-06T01:13:49.762Z,6.37
2023-03-06T01:16:21.299Z,3.42
2023-03-06T01:18:51.281Z,3.42
2023-03-06T01:21:20.829Z,4.65
2023-03-06T01:23:51.524Z,4.00
2023-03-06T01:26:21.072Z,5.13
2023-03-06T01:28:50.335Z,5.20
2023-03-06T01:31:19.851Z,4.80
2023-03-06T01:33:49.005Z,2.58
2023-03-06T01:36:18.806Z,5.20
2023-03-06T01:38:48.070Z,3.47
2023-03-06T01:41:21.177Z,3.15
2023-03-06T01:43:51.213Z,4.88
2023-03-06T01:49:01.467Z,5.07
2023-03-06T01:51:34.448Z,4.32
2023-03-06T01:54:10.157Z,2.20
2023-03-06T01:56:45.481Z,4.68
2023-03-06T01:59:15.271Z,4.30
2023-03-06T02:01:45.928Z,3.63
2023-03-06T02:04:17.686Z,3.88
2023-03-06T02:06:48.331Z,5.63
2023-03-06T02:09:18.145Z,1.98
2023-03-06T02:11:49.055Z,3.78
2023-03-06T02:14:19.583Z,3.13
2023-03-06T02:16:49.644Z,3.85
2023-03-06T02:19:31.144Z,3.83
2023-03-06T02:22:01.276Z,4.53
2023-03-06T02:24:38.609Z,6.93
2023-03-06T02:27:14.294Z,2.17
2023-03-06T02:29:43.816Z,2.60
2023-03-06T02:32:13.649Z,2.38
2023-03-06T02:34:58.076Z,2.97
2023-03-06T02:37:29.927Z,5.13
2023-03-06T02:40:12.351Z,5.70
2023-03-06T02:42:48.062Z,3.55
2023-03-06T02:45:23.350Z,2.97
2023-03-06T02:47:52.825Z,2.47
2023-03-06T02:50:22.107Z,4.30
2023-03-06T02:52:51.635Z,4.40
2023-03-06T02:55:20.881Z,3.22
2023-03-06T02:57:52.105Z,3.60
2023-03-06T03:00:22.172Z,3.40
2023-03-06T03:05:21.320Z,4.68
2023-03-06T03:07:57.737Z,2.47
2023-03-06T03:10:27.245Z,2.67
2023-03-06T03:12:58.746Z,3.40
2023-03-06T03:15:28.139Z,4.45
2023-03-06T03:17:57.584Z,3.08
2023-03-06T03:20:26.775Z,5.22
2023-03-06T03:22:57.505Z,4.88
2023-03-06T03:25:27.628Z,4.93
2023-03-06T03:28:01.248Z,1.02
2023-03-06T03:30:31.162Z,3.80
2023-03-06T03:33:00.893Z,7.00
2023-03-06T03:35:30.180Z,5.80
2023-03-06T03:38:00.250Z,2.67
2023-03-06T03:40:29.968Z,4.95
2023-03-06T03:43:02.748Z,5.15
2023-03-06T03:45:32.111Z,3.97
2023-03-06T03:48:01.573Z,2.83
2023-03-06T03:50:30.847Z,3.77
2023-03-06T03:53:00.292Z,3.28
2023-03-06T03:55:30.112Z,3.92
2023-03-06T03:58:01.365Z,3.45
2023-03-06T04:00:30.961Z,1.80
2023-03-06T04:03:10.449Z,3.72
2023-03-06T04:05:43.771Z,3.55
2023-03-06T04:08:16.258Z,6.30
2023-03-06T04:10:48.003Z,5.60
2023-03-06T04:13:21.127Z,3.35
2023-03-06T04:15:53.061Z,8.00
2023-03-06T04:18:25.389Z,3.83
2023-03-06T04:20:57.480Z,2.65
2023-03-06T04:23:28.014Z,2.92
2023-03-06T04:28:28.446Z,3.78
2023-03-06T04:30:58.038Z,3.25
2023-03-06T04:33:27.885Z,2.35
2023-03-06T04:35:57.561Z,4.47
2023-03-06T04:38:31.338Z,3.38
2023-03-06T04:41:00.681Z,4.45
2023-03-06T04:43:31.634Z,3.63
2023-03-06T04:46:00.829Z,3.88
2023-03-06T04:48:30.394Z,2.92
2023-03-06T04:50:59.503Z,3.95
2023-03-06T04:53:28.994Z,7.90
2023-03-06T04:55:58.168Z,12.15
2023-03-06T04:58:27.746Z,10.53
2023-03-06T05:00:58.515Z,11.88
2023-03-06T05:03:28.006Z,11.13
2023-03-06T05:05:57.211Z,8.63
2023-03-06T05:08:26.718Z,9.18
2023-03-06T05:10:57.692Z,12.52
2023-03-06T05:13:28.604Z,6.10
2023-03-06T05:16:03.811Z,6.57
2023-03-06T05:18:33.735Z,6.88
2023-03-06T05:21:03.449Z,4.95
2023-03-06T05:23:34.550Z,5.38
2023-03-06T05:26:06.632Z,8.23
2023-03-06T05:28:36.151Z,11.70
2023-03-06T05:31:07.996Z,9.00
2023-03-06T05:33:38.577Z,10.88
2023-03-06T05:38:38.703Z,6.25
2023-03-06T05:41:07.874Z,3.95
2023-03-06T05:43:37.390Z,6.60
2023-03-06T05:46:08.884Z,7.38
2023-03-06T05:48:38.825Z,7.05
2023-03-06T05:51:08.212Z,4.05
2023-03-06T05:53:37.995Z,5.65
2023-03-06T05:56:10.073Z,7.47
2023-03-06T05:58:40.426Z,6.07
2023-03-06T06:01:15.425Z,7.55
2023-03-06T06:03:45.674Z,7.00
2023-03-06T06:06:16.305Z,7.32
2023-03-06T06:08:45.882Z,5.75
2023-03-06T06:11:15.610Z,6.55
2023-03-06T06:13:45.237Z,6.30
2023-03-06T06:16:17.410Z,7.00
2023-03-06T06:18:47.247Z,5.03
2023-03-06T06:21:16.548Z,4.07
2023-03-06T06:23:46.286Z,6.90
2023-03-06T06:26:15.527Z,6.50
2023-03-06T06:28:44.951Z,8.90
2023-03-06T06:31:15.768Z,4.68
2023-03-06T06:33:45.574Z,9.50
2023-03-06T06:36:19.377Z,5.82
2023-03-06T06:38:49.612Z,5.53
2023-03-06T06:41:39.226Z,8.93
2023-03-06T06:44:11.315Z,5.55
2023-03-06T06:49:33.515Z,4.57
2023-03-06T06:52:03.033Z,6.80
2023-03-06T06:54:33.447Z,10.13
2023-03-06T06:57:02.700Z,6.68
2023-03-06T06:59:32.176Z,9.23
2023-03-06T07:02:02.854Z,9.48
2023-03-06T07:04:32.558Z,6.95
2023-03-06T07:07:02.380Z,6.40
2023-03-06T07:09:31.995Z,11.55
2023-03-06T07:12:01.170Z,6.75
2023-03-06T07:14:30.739Z,11.13
2023-03-06T07:17:01.279Z,5.10
2023-03-06T07:19:30.747Z,5.15
2023-03-06T07:22:00.417Z,5.03
2023-03-06T07:24:29.944Z,3.85
2023-03-06T07:26:59.196Z,5.68
2023-03-06T07:29:28.664Z,3.70
2023-03-06T07:31:57.814Z,8.00
2023-03-06T07:34:28.860Z,6.38
2023-03-06T07:36:58.077Z,6.05
2023-03-06T07:39:28.175Z,8.75
2023-03-06T07:41:58.670Z,8.48
2023-03-06T07:44:28.340Z,3.40
2023-03-06T07:46:57.535Z,5.90
2023-03-06T07:49:28.577Z,6.75
2023-03-06T07:51:57.788Z,6.35
2023-03-06T07:54:27.285Z,10.73
2023-03-06T07:56:56.460Z,6.07
2023-03-06T07:59:25.935Z,7.20
2023-03-06T08:01:57.526Z,6.18
2023-03-06T08:04:29.121Z,6.20
2023-03-06T08:07:01.616Z,4.53
2023-03-06T08:09:31.086Z,5.57
2023-03-06T08:12:00.227Z,6.05
2023-03-06T08:14:29.785Z,6.53
2023-03-06T08:16:59.023Z,6.85
2023-03-06T08:19:29.914Z,4.70
2023-03-06T08:21:59.128Z,4.07
2023-03-06T08:24:28.645Z,5.63
2023-03-06T08:26:57.794Z,4.57
2023-03-06T08:29:27.207Z,6.70
2023-03-06T08:31:56.442Z,3.75
2023-03-06T08:34:26.625Z,4.60
2023-03-06T08:36:57.170Z,4.13
2023-03-06T08:39:26.743Z,5.85
2023-03-06T08:41:55.873Z,4.25
2023-03-06T08:44:26.877Z,5.38
2023-03-06T08:46:57.067Z,8.52
2023-03-06T08:49:26.548Z,5.70
2023-03-06T08:51:57.165Z,9.57
2023-03-06T08:54:26.712Z,7.60
2023-03-06T08:56:55.834Z,4.13
2023-03-06T08:59:25.883Z,3.37
2023-03-06T09:01:55.200Z,2.92
2023-03-06T09:04:24.744Z,5.00
2023-03-06T09:06:55.506Z,8.27
2023-03-06T09:09:26.482Z,4.28
2023-03-06T09:11:56.459Z,2.78
2023-03-06T09:14:26.002Z,3.75
2023-03-06T09:16:55.144Z,1.92
2023-03-06T09:19:24.720Z,6.80
2023-03-06T09:21:54.090Z,5.57
2023-03-06T09:24:23.561Z,5.85
2023-03-06T09:26:54.167Z,2.95
2023-03-06T09:29:23.792Z,3.60
2023-03-06T09:31:52.945Z,3.50
2023-03-06T09:34:22.420Z,2.83
2023-03-06T09:36:56.727Z,4.28
2023-03-06T09:39:27.639Z,3.42
2023-03-06T09:41:59.467Z,4.72
2023-03-06T09:44:31.938Z,9.10
2023-03-06T09:47:31.753Z,3.90
2023-03-06T09:50:23.839Z,3.95
2023-03-06T09:53:04.629Z,7.85
2023-03-06T09:55:36.984Z,4.15
2023-03-06T09:58:15.257Z,3.17
2023-03-06T10:00:53.036Z,3.67
2023-03-06T10:03:27.260Z,3.92
2023-03-06T10:06:02.592Z,5.00
2023-03-06T10:08:45.208Z,4.90
2023-03-06T10:11:20.919Z,5.70
2023-03-06T10:13:55.272Z,3.35
2023-03-06T10:16:28.718Z,4.70
2023-03-06T10:19:01.345Z,1.90
2023-03-06T10:21:43.650Z,5.68
2023-03-06T10:24:25.088Z,7.65
2023-03-06T10:27:01.171Z,4.63
2023-03-06T10:29:56.331Z,5.32
2023-03-06T10:32:48.408Z,3.92
2023-03-06T10:35:22.750Z,3.55
2023-03-06T10:37:59.547Z,3.08
2023-03-06T10:40:38.984Z,4.72
2023-03-06T10:43:12.483Z,4.75
2023-03-06T10:45:53.685Z,3.75
2023-03-06T10:48:26.098Z,3.63
2023-03-06T10:51:18.133Z,6.18
2023-03-06T10:53:54.139Z,3.72
2023-03-06T10:56:35.137Z,3.22
2023-03-06T10:59:12.407Z,4.63
2023-03-06T11:01:44.885Z,3.63
2023-03-06T11:04:24.282Z,3.17
2023-03-06T11:07:09.077Z,2.05
2023-03-06T11:09:38.695Z,6.20
2023-03-06T11:12:26.421Z,6.57
2023-03-06T11:15:17.516Z,3.15
2023-03-06T11:18:00.350Z,5.07
2023-03-06T11:20:48.610Z,3.72
2023-03-06T11:23:23.002Z,3.65
2023-03-06T11:25:57.388Z,4.50
2023-03-06T11:28:31.440Z,4.10
2023-03-06T11:31:07.246Z,5.28
2023-03-06T11:33:45.388Z,4.18
2023-03-06T11:36:20.073Z,2.83
2023-03-06T11:38:53.033Z,3.42
2023-03-06T11:41:33.632Z,2.42
2023-03-06T11:46:41.407Z,4.28
2023-03-06T11:49:23.467Z,4.57
2023-03-06T11:51:57.279Z,4.55
2023-03-06T11:54:26.657Z,4.18
2023-03-06T11:57:00.764Z,2.03
2023-03-06T11:59:52.662Z,5.80
2023-03-06T12:02:34.510Z,13.32
2023-03-06T12:05:24.411Z,4.63
2023-03-06T12:08:03.140Z,2.33
2023-03-06T12:10:39.685Z,3.75
2023-03-06T12:13:35.277Z,5.53
2023-03-06T12:16:24.462Z,2.97
2023-03-06T12:19:05.113Z,3.70
2023-03-06T12:24:30.724Z,3.03
2023-03-06T12:27:10.391Z,3.13
2023-03-06T12:30:16.695Z,3.92
2023-03-06T12:32:52.764Z,2.33
2023-03-06T12:35:35.710Z,2.67
2023-03-06T12:38:24.887Z,3.13
2023-03-06T12:41:05.530Z,5.68
2023-03-06T12:46:26.071Z,6.68
2023-03-06T12:49:04.569Z,4.93
2023-03-06T12:51:35.085Z,4.88
2023-03-06T12:54:05.944Z,4.28
2023-03-06T12:56:36.538Z,6.03
2023-03-06T12:59:05.982Z,1.95
2023-03-06T13:02:17.638Z,3.22
2023-03-06T13:05:01.411Z,7.10
2023-03-06T13:07:55.716Z,4.78
2023-03-06T13:10:29.321Z,4.82
2023-03-06T13:13:01.208Z,3.40
2023-03-06T13:15:40.332Z,3.47
2023-03-06T13:18:51.640Z,4.55
2023-03-06T13:22:01.409Z,5.88
2023-03-06T13:24:33.905Z,4.85
2023-03-06T13:27:07.399Z,2.63
2023-03-06T13:30:19.695Z,4.03
2023-03-06T13:32:49.828Z,3.88
2023-03-06T13:38:54.785Z,2.38
2023-03-06T13:41:55.567Z,3.50
2023-03-06T13:44:51.848Z,2.45
2023-03-06T13:48:02.466Z,3.83
2023-03-06T13:50:38.473Z,2.92
2023-03-06T13:54:04.964Z,2.45
2023-03-06T13:57:28.759Z,8.15
2023-03-06T14:00:37.758Z,6.68
2023-03-06T14:03:40.150Z,2.88
2023-03-06T14:06:50.465Z,2.72
2023-03-06T14:09:27.532Z,3.08
2023-03-06T14:12:01.931Z,6.13
2023-03-06T14:14:37.236Z,6.93
2023-03-06T14:17:07.286Z,3.92
2023-03-06T14:19:40.414Z,5.75
2023-03-06T14:22:18.345Z,7.97
2023-03-06T14:24:56.522Z,4.55
2023-03-06T14:27:40.903Z,3.53
2023-03-06T14:30:13.371Z,4.00
2023-03-06T14:32:43.603Z,5.50
2023-03-06T14:35:30.558Z,9.15
2023-03-06T14:38:04.359Z,8.25
2023-03-06T14:40:36.452Z,7.25
2023-03-06T14:43:13.927Z,9.77
2023-03-06T14:45:54.392Z,11.95
2023-03-06T14:48:24.816Z,8.35
2023-03-06T14:50:56.359Z,17.00
2023-03-06T14:53:30.070Z,14.45
2023-03-06T14:56:01.528Z,18.60
2023-03-06T14:58:35.610Z,14.00
2023-03-06T15:01:07.906Z,22.45
2023-03-06T15:03:47.018Z,61.35
2023-03-06T15:06:21.003Z,50.45
2023-03-06T15:08:59.097Z,47.20
2023-03-06T15:11:28.340Z,33.08
2023-03-06T15:14:04.678Z,32.20
2023-03-06T15:16:33.936Z,17.85
2023-03-06T15:19:05.616Z,15.63
2023-03-06T15:21:38.780Z,9.13
2023-03-06T15:24:35.133Z,13.98
2023-03-06T15:27:06.339Z,23.98
2023-03-06T15:29:39.705Z,14.40
2023-03-06T15:32:17.562Z,16.55
2023-03-06T15:34:47.100Z,19.65
2023-03-06T15:37:29.100Z,20.80
2023-03-06T15:40:18.425Z,20.20
2023-03-06T15:42:50.010Z,19.75
2023-03-06T15:45:22.129Z,6.32
2023-03-06T15:47:52.612Z,4.97
2023-03-06T15:50:24.452Z,6.70
2023-03-06T15:52:54.723Z,6.88
2023-03-06T15:55:28.558Z,7.35
2023-03-06T15:58:00.692Z,8.13
2023-03-06T16:00:33.098Z,13.43
2023-03-06T16:03:03.069Z,9.55
2023-03-06T16:05:33.257Z,14.48
2023-03-06T16:08:02.555Z,13.32
2023-03-06T16:10:37.345Z,15.27
2023-03-06T16:13:12.283Z,15.32
2023-03-06T16:15:46.386Z,18.27
2023-03-06T16:18:16.977Z,18.63
2023-03-06T16:20:50.564Z,23.75
2023-03-06T16:25:51.343Z,105.55
2023-03-06T16:28:20.636Z,174.13
2023-03-06T16:30:50.150Z,192.80
2023-03-06T16:33:19.409Z,157.05
2023-03-06T16:35:50.019Z,121.10
2023-03-06T16:38:19.342Z,120.50
2023-03-06T16:40:50.204Z,132.68
2023-03-06T16:43:19.325Z,131.35
2023-03-06T16:45:48.821Z,121.63
2023-03-06T16:48:18.344Z,79.43
2023-03-06T16:50:48.062Z,67.90
2023-03-06T16:53:17.261Z,67.38
2023-03-06T16:55:47.477Z,49.67
2023-03-06T16:58:18.102Z,75.72
2023-03-06T17:00:47.656Z,106.20
2023-03-06T17:03:18.455Z,97.32
2023-03-06T17:05:47.985Z,97.75
2023-03-06T17:08:17.161Z,91.07
2023-03-06T17:10:47.932Z,54.70
2023-03-06T17:13:19.806Z,26.73
2023-03-06T17:15:56.587Z,35.88
2023-03-06T17:18:27.058Z,21.85
2023-03-06T17:20:58.582Z,23.02
2023-03-06T17:23:30.539Z,18.45
2023-03-06T17:26:08.110Z,24.17
2023-03-06T17:28:40.307Z,20.00
2023-03-06T17:31:14.938Z,42.00
2023-03-06T17:33:45.244Z,41.35
2023-03-06T17:36:15.586Z,36.90
2023-03-06T17:38:45.101Z,33.33
2023-03-06T17:41:15.009Z,20.85
2023-03-06T17:43:45.632Z,22.55
2023-03-06T17:46:15.237Z,15.13
2023-03-06T17:48:44.565Z,32.90
2023-03-06T17:51:14.694Z,41.83
2023-03-06T17:53:44.608Z,73.78
2023-03-06T17:56:16.381Z,45.53
2023-03-06T17:58:50.254Z,26.67
2023-03-06T18:01:23.282Z,20.90
2023-03-06T18:03:54.715Z,38.40
2023-03-06T18:06:28.121Z,34.90
2023-03-06T18:08:58.249Z,27.63
2023-03-06T18:11:28.913Z,20.65
2023-03-06T18:14:00.395Z,30.40
2023-03-06T18:16:31.141Z,23.25
2023-03-06T18:21:30.245Z,19.05
2023-03-06T18:23:59.929Z,17.27
2023-03-06T18:26:30.860Z,21.02
2023-03-06T18:29:04.441Z,22.50
2023-03-06T18:31:36.630Z,33.15
2023-03-06T18:34:08.222Z,52.03
2023-03-06T18:36:38.482Z,85.93
2023-03-06T18:39:09.807Z,80.95
2023-03-06T18:41:39.925Z,77.65
2023-03-06T18:44:14.524Z,87.05
2023-03-06T18:46:44.431Z,106.43
2023-03-06T18:49:15.872Z,110.80
2023-03-06T18:51:47.301Z,98.07
2023-03-06T18:54:16.782Z,123.28
2023-03-06T18:56:46.549Z,87.65
2023-03-06T18:59:19.034Z,99.40
2023-03-06T19:01:49.389Z,83.53
2023-03-06T19:04:18.817Z,80.18
2023-03-06T19:06:48.540Z,77.13
2023-03-06T19:09:17.864Z,79.20
2023-03-06T19:11:47.667Z,63.85
2023-03-06T19:14:18.929Z,67.47
2023-03-06T19:16:48.530Z,61.70
2023-03-06T19:19:17.783Z,55.30
2023-03-06T19:21:47.232Z,58.40
2023-03-06T19:24:16.706Z,58.05
2023-03-06T19:26:47.476Z,44.03
2023-03-06T19:29:18.549Z,39.60
2023-03-06T19:31:48.168Z,41.58
2023-03-06T19:34:17.358Z,36.65
2023-03-06T19:36:46.954Z,42.55
2023-03-06T19:39:16.272Z,34.63
2023-03-06T19:41:46.891Z,33.40
2023-03-06T19:46:48.297Z,29.88
2023-03-06T19:49:18.240Z,24.13
2023-03-06T19:54:16.701Z,23.80
2023-03-06T19:56:46.436Z,21.88
2023-03-06T19:59:17.128Z,22.17
2023-03-06T20:01:46.820Z,29.83
2023-03-06T20:04:17.533Z,29.33
2023-03-06T20:06:48.216Z,36.33
2023-03-06T20:09:17.757Z,38.97
2023-03-06T20:11:47.244Z,45.45
2023-03-06T20:14:19.414Z,41.17
2023-03-06T20:16:49.413Z,44.97
2023-03-06T20:19:19.392Z,43.78
2023-03-06T20:21:49.175Z,39.70
2023-03-06T20:24:19.287Z,36.33
2023-03-06T20:26:51.212Z,32.65
2023-03-06T20:29:22.250Z,30.73
2023-03-06T20:31:54.237Z,32.42
2023-03-06T20:34:24.122Z,30.83
2023-03-06T20:36:54.139Z,27.25
2023-03-06T20:39:23.469Z,25.77
2023-03-06T20:41:53.036Z,26.08
2023-03-06T20:44:23.862Z,31.70
2023-03-06T20:46:53.564Z,27.30
2023-03-06T20:49:23.018Z,27.67
2023-03-06T20:51:52.594Z,30.70
2023-03-06T20:54:21.870Z,26.55
2023-03-06T20:56:51.596Z,27.67
2023-03-06T20:59:23.800Z,24.23
2023-03-06T21:01:53.728Z,23.70
2023-03-06T21:04:23.263Z,25.05
2023-03-06T21:06:55.296Z,23.48
2023-03-06T21:09:24.523Z,19.92
2023-03-06T21:11:54.127Z,18.70
2023-03-06T21:14:24.719Z,24.07
2023-03-06T21:16:54.310Z,24.23
2023-03-06T21:19:23.471Z,22.40
2023-03-06T21:21:52.952Z,24.83
2023-03-06T21:24:22.204Z,22.23
2023-03-06T21:26:52.150Z,23.77
2023-03-06T21:29:21.518Z,23.27
2023-03-06T21:31:52.576Z,26.38
2023-03-06T21:34:21.762Z,24.35
2023-03-06T21:36:51.269Z,28.45
2023-03-06T21:39:21.118Z,30.45
2023-03-06T21:41:50.741Z,35.90
2023-03-06T21:44:20.029Z,31.63
2023-03-06T21:46:49.587Z,41.25
2023-03-06T21:49:23.001Z,39.95
2023-03-06T21:51:52.842Z,34.53
2023-03-06T21:54:22.040Z,57.50
2023-03-06T21:56:51.765Z,43.22
2023-03-06T21:59:21.001Z,44.13
2023-03-06T22:01:50.678Z,41.33
2023-03-06T22:04:21.303Z,44.07
2023-03-06T22:06:50.892Z,37.83
2023-03-06T22:09:20.263Z,45.72
2023-03-06T22:11:49.753Z,47.53
2023-03-06T22:14:19.117Z,48.90
2023-03-06T22:16:48.691Z,51.22
2023-03-06T22:19:17.952Z,50.90
2023-03-06T22:21:48.819Z,45.90
2023-03-06T22:24:18.032Z,41.42
2023-03-06T22:26:47.462Z,49.25
2023-03-06T22:29:16.643Z,38.85
2023-03-06T22:31:46.060Z,42.70
2023-03-06T22:34:15.227Z,46.97
2023-03-06T22:36:44.657Z,42.23
2023-03-06T22:39:15.697Z,41.67
2023-03-06T22:41:45.131Z,41.17
2023-03-06T22:44:18.355Z,38.55
2023-03-06T22:46:48.064Z,34.92
2023-03-06T22:49:17.349Z,40.90
2023-03-06T22:51:46.832Z,39.35
2023-03-06T22:54:17.414Z,39.45
2023-03-06T22:56:46.948Z,32.97
2023-03-06T22:59:16.069Z,32.25
2023-03-06T23:01:45.448Z,30.63
2023-03-06T23:04:14.620Z,29.73
2023-03-06T23:06:46.726Z,30.58
2023-03-06T23:09:20.705Z,36.65
2023-03-06T23:12:09.256Z,33.28
2023-03-06T23:14:57.517Z,32.05
2023-03-06T23:17:45.601Z,29.80
2023-03-06T23:20:33.529Z,31.75
2023-03-06T23:23:22.006Z,33.97
2023-03-06T23:25:53.055Z,31.70
2023-03-06T23:28:22.492Z,36.83
2023-03-06T23:30:51.819Z,29.85
2023-03-06T23:33:21.380Z,28.77
2023-03-06T23:35:50.837Z,25.05
2023-03-06T23:38:20.402Z,25.88
2023-03-06T23:40:51.490Z,27.98
2023-03-06T23:43:21.013Z,23.05
2023-03-06T23:45:56.870Z,24.25
2023-03-06T23:48:27.110Z,26.85
2023-03-06T23:50:56.418Z,21.00
2023-03-06T23:53:25.987Z,25.60
2023-03-06T23:55:56.656Z,23.43
2023-03-06T23:58:26.197Z,24.17
